Time;durP1;ratioP1;P1;durP2;ratioP2;P2;SDS_P1;SDS_P2;PMS_P1;PMS_P2;Temp;Humidity;BMP_temperature;BMP_pressure;BME280_temperature;BME280_humidity;BME280_pressure;Samples;Min_cycle;Max_cycle;Signal;HPM_P1;HPM_P2
2022/07/15 00:00:38;;;;;;;2.85;1.50;;;;;;;;;;5164946;27;20213;-69
2022/07/15 00:03:04;;;;;;;3.30;1.95;;;;;;;;;;5164982;27;20193;-69
2022/07/15 00:05:31;;;;;;;2.00;1.63;;;;;;;;;;5164691;27;20443;-69
2022/07/15 00:08:00;;;;;;;2.83;2.00;;;;;;;;;;5164284;27;20224;-69
2022/07/15 00:10:26;;;;;;;1.70;1.63;;;;;;;;;;5164917;27;20196;-69
2022/07/15 00:12:55;;;;;;;2.60;1.70;;;;;;;;;;5164824;27;20197;-69
2022/07/15 00:15:22;;;;;;;4.97;2.08;;;;;;;;;;5164861;27;20385;-69
2022/07/15 00:17:49;;;;;;;2.67;1.73;;;;;;;;;;5164411;27;20231;-69
2022/07/15 00:20:16;;;;;;;2.63;1.95;;;;;;;;;;5164278;27;20220;-69
2022/07/15 00:22:43;;;;;;;4.88;1.70;;;;;;;;;;5164396;27;20246;-69
2022/07/15 00:25:10;;;;;;;2.83;1.75;;;;;;;;;;5164456;27;20201;-69
2022/07/15 00:27:36;;;;;;;2.13;1.40;;;;;;;;;;5164114;27;20245;-69
2022/07/15 00:30:04;;;;;;;3.08;1.40;;;;;;;;;;5164535;27;20197;-69
2022/07/15 00:32:30;;;;;;;3.15;1.98;;;;;;;;;;5164953;27;20198;-69
2022/07/15 00:34:56;;;;;;;2.25;1.92;;;;;;;;;;5164135;27;20438;-69
2022/07/15 00:37:23;;;;;;;3.97;1.98;;;;;;;;;;5164263;27;20241;-69
2022/07/15 00:39:49;;;;;;;4.80;1.80;;;;;;;;;;5164283;27;20598;-69
2022/07/15 00:42:43;;;;;;;2.47;1.75;;;;;;;;;;5163310;27;20246;-69
2022/07/15 00:45:01;;;;;;;3.20;1.75;;;;;;;;;;5164121;27;20260;-69
2022/07/15 00:47:29;;;;;;;3.22;2.10;;;;;;;;;;5163812;27;20193;-69
2022/07/15 00:49:55;;;;;;;3.28;2.25;;;;;;;;;;5164322;27;20196;-69
2022/07/15 00:52:23;;;;;;;3.63;2.22;;;;;;;;;;5164279;27;20201;-69
2022/07/15 00:54:50;;;;;;;2.97;1.73;;;;;;;;;;5164616;27;20497;-69
2022/07/15 00:57:16;;;;;;;6.43;1.83;;;;;;;;;;5163873;27;20419;-69
2022/07/15 00:59:44;;;;;;;2.55;1.83;;;;;;;;;;5163949;27;20209;-69
2022/07/15 01:02:11;;;;;;;4.03;1.90;;;;;;;;;;5164361;27;20204;-69
2022/07/15 01:04:39;;;;;;;2.15;1.98;;;;;;;;;;5164088;27;20190;-69
2022/07/15 01:07:06;;;;;;;3.33;1.48;;;;;;;;;;5163749;27;20201;-69
2022/07/15 01:09:32;;;;;;;1.95;1.70;;;;;;;;;;5163907;27;20214;-69
2022/07/15 01:11:58;;;;;;;3.38;1.65;;;;;;;;;;5163904;27;20194;-69
2022/07/15 01:14:24;;;;;;;3.58;1.65;;;;;;;;;;5163847;27;20418;-69
2022/07/15 01:16:52;;;;;;;10.00;1.70;;;;;;;;;;5163565;27;20220;-69
2022/07/15 01:19:18;;;;;;;2.75;1.70;;;;;;;;;;5163969;27;20485;-69
2022/07/15 01:21:46;;;;;;;2.45;1.60;;;;;;;;;;5163950;27;20193;-69
2022/07/15 01:24:12;;;;;;;1.60;1.50;;;;;;;;;;5163812;27;20546;-69
2022/07/15 01:26:38;;;;;;;3.47;1.60;;;;;;;;;;5162847;27;20430;-69
2022/07/15 01:29:04;;;;;;;4.78;1.60;;;;;;;;;;5163857;27;20266;-69
2022/07/15 01:31:31;;;;;;;3.17;1.75;;;;;;;;;;5163826;27;20202;-69
2022/07/15 01:33:57;;;;;;;2.50;1.30;;;;;;;;;;5163804;27;20193;-69
2022/07/15 01:36:23;;;;;;;3.55;1.70;;;;;;;;;;5163491;27;20255;-69
2022/07/15 01:38:51;;;;;;;3.67;1.70;;;;;;;;;;5163616;27;20193;-69
2022/07/15 01:41:17;;;;;;;1.83;1.63;;;;;;;;;;5163921;27;20217;-69
2022/07/15 01:43:43;;;;;;;1.90;1.65;;;;;;;;;;5163622;27;20200;-69
2022/07/15 01:46:10;;;;;;;1.92;1.40;;;;;;;;;;5163588;27;20194;-69
2022/07/15 01:51:19;;;;;;;3.38;1.42;;;;;;;;;;5163572;27;20185;-69
2022/07/15 01:53:46;;;;;;;1.95;1.83;;;;;;;;;;5167056;27;20197;-69
2022/07/15 01:56:13;;;;;;;2.08;1.65;;;;;;;;;;5167139;27;20213;-69
2022/07/15 01:58:40;;;;;;;1.60;1.50;;;;;;;;;;5167490;27;20424;-69
2022/07/15 02:01:07;;;;;;;1.73;1.60;;;;;;;;;;5167243;27;20552;-69
2022/07/15 02:03:34;;;;;;;2.67;1.42;;;;;;;;;;5167382;27;20269;-69
2022/07/15 02:06:00;;;;;;;2.85;1.50;;;;;;;;;;5166717;27;20225;-69
2022/07/15 02:08:26;;;;;;;2.90;1.70;;;;;;;;;;5167380;27;20198;-69
2022/07/15 02:10:52;;;;;;;1.83;1.20;;;;;;;;;;5167480;27;20226;-69
2022/07/15 02:13:20;;;;;;;3.90;1.60;;;;;;;;;;5167047;27;20208;-69
2022/07/15 02:15:46;;;;;;;2.10;1.10;;;;;;;;;;5166906;27;20227;-69
2022/07/15 02:18:13;;;;;;;1.52;1.20;;;;;;;;;;5166843;27;20201;-69
2022/07/15 02:20:39;;;;;;;5.70;1.50;;;;;;;;;;5166825;27;20386;-69
2022/07/15 02:23:05;;;;;;;1.67;1.50;;;;;;;;;;5167049;27;20193;-69
2022/07/15 02:25:33;;;;;;;3.28;1.38;;;;;;;;;;5167022;27;20194;-69
2022/07/15 02:28:00;;;;;;;2.40;1.23;;;;;;;;;;5166697;27;20362;-69
2022/07/15 02:30:29;;;;;;;2.53;1.23;;;;;;;;;;5166558;27;20196;-69
2022/07/15 02:32:56;;;;;;;1.55;1.38;;;;;;;;;;5166586;27;20197;-69
2022/07/15 02:35:23;;;;;;;5.05;1.45;;;;;;;;;;5166881;27;20194;-69
2022/07/15 02:37:49;;;;;;;3.17;1.63;;;;;;;;;;5166524;27;20200;-69
2022/07/15 02:40:15;;;;;;;2.80;1.45;;;;;;;;;;5166602;27;20525;-69
2022/07/15 02:42:47;;;;;;;1.67;1.58;;;;;;;;;;5166610;27;20208;-69
2022/07/15 02:45:13;;;;;;;1.70;1.52;;;;;;;;;;5166392;27;20201;-69
2022/07/15 02:47:41;;;;;;;2.15;1.77;;;;;;;;;;5166066;27;20501;-69
2022/07/15 02:50:07;;;;;;;2.25;1.30;;;;;;;;;;5166510;27;20227;-69
2022/07/15 02:52:34;;;;;;;4.20;1.60;;;;;;;;;;5166431;27;20569;-69
2022/07/15 02:55:00;;;;;;;1.60;1.33;;;;;;;;;;5166392;27;20201;-69
2022/07/15 02:57:27;;;;;;;2.92;1.40;;;;;;;;;;5166070;27;20201;-69
2022/07/15 02:59:53;;;;;;;2.58;1.20;;;;;;;;;;5166398;27;20524;-69
2022/07/15 03:02:20;;;;;;;1.45;1.35;;;;;;;;;;5166201;27;20542;-69
2022/07/15 03:04:47;;;;;;;2.17;1.40;;;;;;;;;;5165116;27;20494;-69
2022/07/15 03:07:13;;;;;;;3.30;1.40;;;;;;;;;;5165706;27;20201;-69
2022/07/15 03:09:40;;;;;;;1.45;1.40;;;;;;;;;;5166105;27;20193;-69
2022/07/15 03:12:06;;;;;;;1.60;1.50;;;;;;;;;;5166092;27;20193;-69
2022/07/15 03:14:33;;;;;;;1.48;1.35;;;;;;;;;;5165728;27;20419;-69
2022/07/15 03:16:59;;;;;;;1.58;1.48;;;;;;;;;;5165781;27;20205;-69
2022/07/15 03:19:25;;;;;;;4.30;1.58;;;;;;;;;;5165756;27;20201;-69
2022/07/15 03:21:53;;;;;;;1.50;1.35;;;;;;;;;;5165769;27;20224;-69
2022/07/15 03:24:19;;;;;;;1.65;1.55;;;;;;;;;;5165793;27;20194;-69
2022/07/15 03:26:45;;;;;;;6.40;2.25;;;;;;;;;;5165292;27;20193;-69
2022/07/15 03:29:13;;;;;;;4.22;1.88;;;;;;;;;;5165436;27;20231;-69
2022/07/15 03:31:40;;;;;;;1.73;1.60;;;;;;;;;;5165735;27;20197;-69
2022/07/15 03:34:06;;;;;;;5.93;1.90;;;;;;;;;;5165350;27;20230;-69
2022/07/15 03:36:32;;;;;;;1.63;1.52;;;;;;;;;;5165418;27;20360;-69
2022/07/15 03:39:00;;;;;;;1.80;1.60;;;;;;;;;;5165456;27;20231;-69
2022/07/15 03:41:26;;;;;;;2.85;1.88;;;;;;;;;;5165355;27;20216;-69
2022/07/15 03:43:52;;;;;;;2.80;1.85;;;;;;;;;;5165213;27;20194;-69
2022/07/15 03:46:19;;;;;;;3.08;2.08;;;;;;;;;;5165038;27;20200;-69
2022/07/15 03:48:45;;;;;;;2.80;2.00;;;;;;;;;;5165359;27;20225;-69
2022/07/15 03:51:11;;;;;;;4.00;1.70;;;;;;;;;;5165265;27;20226;-69
2022/07/15 03:53:38;;;;;;;4.72;2.00;;;;;;;;;;5165165;27;20201;-69
2022/07/15 03:56:06;;;;;;;2.15;1.73;;;;;;;;;;5164876;27;20239;-69
2022/07/15 03:58:32;;;;;;;3.25;1.75;;;;;;;;;;5164910;27;20200;-69
2022/07/15 04:00:58;;;;;;;3.20;1.70;;;;;;;;;;5164886;27;20213;-69
2022/07/15 04:03:24;;;;;;;2.13;1.83;;;;;;;;;;5165041;27;20497;-69
2022/07/15 04:05:51;;;;;;;1.95;1.48;;;;;;;;;;5164794;27;20541;-69
2022/07/15 04:08:17;;;;;;;1.85;1.52;;;;;;;;;;5164633;27;20202;-69
2022/07/15 04:10:43;;;;;;;4.10;1.75;;;;;;;;;;5164835;27;20197;-69
2022/07/15 04:13:11;;;;;;;1.80;1.30;;;;;;;;;;5164903;27;20200;-69
2022/07/15 04:15:37;;;;;;;1.75;1.50;;;;;;;;;;5164365;27;20194;-67
2022/07/15 04:18:03;;;;;;;4.88;1.88;;;;;;;;;;5164541;27;20194;-67
2022/07/15 04:20:30;;;;;;;1.92;1.70;;;;;;;;;;5164416;27;20316;-67
2022/07/15 04:22:56;;;;;;;1.67;1.38;;;;;;;;;;5164489;27;20497;-67
2022/07/15 04:25:23;;;;;;;3.03;1.42;;;;;;;;;;5164401;27;20201;-67
2022/07/15 04:27:49;;;;;;;4.47;1.52;;;;;;;;;;5164490;27;20497;-67
2022/07/15 04:30:16;;;;;;;2.17;1.40;;;;;;;;;;5164755;27;20197;-67
2022/07/15 04:32:43;;;;;;;1.77;1.65;;;;;;;;;;5164709;27;20533;-67
2022/07/15 04:35:09;;;;;;;2.90;2.08;;;;;;;;;;5164486;27;20205;-67
2022/07/15 04:37:35;;;;;;;1.58;1.48;;;;;;;;;;5164101;27;20200;-67
2022/07/15 04:40:02;;;;;;;1.67;1.67;;;;;;;;;;5164176;27;20197;-67
2022/07/15 04:42:28;;;;;;;2.60;1.80;;;;;;;;;;5164509;27;20493;-66
2022/07/15 04:44:54;;;;;;;1.92;1.83;;;;;;;;;;5164477;27;20568;-67
2022/07/15 04:47:22;;;;;;;2.47;1.65;;;;;;;;;;5164082;27;20193;-67
2022/07/15 04:52:32;;;;;;;2.25;1.90;;;;;;;;;;5164217;27;20223;-67
2022/07/15 04:54:58;;;;;;;3.17;2.10;;;;;;;;;;5164391;27;20193;-67
2022/07/15 04:57:24;;;;;;;1.92;1.83;;;;;;;;;;5164069;27;20194;-68
2022/07/15 04:59:51;;;;;;;4.35;1.95;;;;;;;;;;5164214;27;20223;-68
2022/07/15 05:02:17;;;;;;;2.90;2.00;;;;;;;;;;5164409;27;20225;-67
2022/07/15 05:04:46;;;;;;;2.47;2.05;;;;;;;;;;5164031;27;20498;-68
2022/07/15 05:07:13;;;;;;;3.28;1.67;;;;;;;;;;5163608;27;20241;-67
2022/07/15 05:09:39;;;;;;;2.03;1.92;;;;;;;;;;5164565;27;20510;-68
2022/07/15 05:12:05;;;;;;;1.70;1.60;;;;;;;;;;5163954;27;20194;-68
2022/07/15 05:14:32;;;;;;;6.85;2.00;;;;;;;;;;5163610;27;20473;-68
2022/07/15 05:16:58;;;;;;;2.28;1.60;;;;;;;;;;5163530;27;20193;-68
2022/07/15 05:19:24;;;;;;;1.15;1.15;;;;;;;;;;5163697;27;20201;-68
2022/07/15 05:21:52;;;;;;;2.17;2.03;;;;;;;;;;5163424;27;20312;-68
2022/07/15 05:24:19;;;;;;;2.85;2.08;;;;;;;;;;5163738;27;20194;-68
2022/07/15 05:26:45;;;;;;;3.05;2.03;;;;;;;;;;5163524;27;20193;-68
2022/07/15 05:29:11;;;;;;;3.65;1.88;;;;;;;;;;5167684;27;20193;-68
2022/07/15 05:31:37;;;;;;;3.75;1.95;;;;;;;;;;5167579;27;20235;-68
2022/07/15 05:34:04;;;;;;;3.50;2.20;;;;;;;;;;5167512;27;20198;-68
2022/07/15 05:36:30;;;;;;;6.55;3.00;;;;;;;;;;5167410;27;20210;-68
2022/07/15 05:38:57;;;;;;;2.85;1.95;;;;;;;;;;5153324;27;20213;-68
2022/07/15 05:41:24;;;;;;;3.50;2.10;;;;;;;;;;5149151;27;20237;-68
2022/07/15 05:43:50;;;;;;;3.08;2.40;;;;;;;;;;5157661;27;20307;-68
2022/07/15 05:46:16;;;;;;;2.90;2.60;;;;;;;;;;5152058;27;20432;-68
2022/07/15 05:48:42;;;;;;;6.35;2.63;;;;;;;;;;5140930;27;20271;-68
2022/07/15 05:51:09;;;;;;;4.43;2.60;;;;;;;;;;5154659;27;20489;-68
2022/07/15 05:53:35;;;;;;;4.20;2.83;;;;;;;;;;5160630;27;20205;-68
2022/07/15 05:56:03;;;;;;;3.28;2.92;;;;;;;;;;5141394;27;20206;-68
2022/07/15 05:58:29;;;;;;;4.47;3.10;;;;;;;;;;5142490;27;20215;-67
2022/07/15 06:00:55;;;;;;;6.38;3.33;;;;;;;;;;5141272;27;20230;-67
2022/07/15 06:03:22;;;;;;;3.38;3.05;;;;;;;;;;5146977;27;20224;-67
2022/07/15 06:05:48;;;;;;;6.30;2.88;;;;;;;;;;5158584;27;20228;-67
2022/07/15 06:08:14;;;;;;;6.38;2.85;;;;;;;;;;5155801;27;20218;-68
2022/07/15 06:10:41;;;;;;;7.45;2.65;;;;;;;;;;5137792;27;20217;-61
2022/07/15 06:13:09;;;;;;;6.10;3.08;;;;;;;;;;5138237;27;20214;-62
2022/07/15 06:15:36;;;;;;;5.85;3.70;;;;;;;;;;5140605;27;20210;-62
2022/07/15 06:18:02;;;;;;;8.23;2.83;;;;;;;;;;5152576;27;20210;-62
2022/07/15 06:20:29;;;;;;;4.38;2.58;;;;;;;;;;5138140;27;20214;-61
2022/07/15 06:22:55;;;;;;;8.15;2.50;;;;;;;;;;5142337;27;20590;-62
2022/07/15 06:25:21;;;;;;;5.20;2.28;;;;;;;;;;5142926;27;20564;-62
2022/07/15 06:27:48;;;;;;;5.07;2.50;;;;;;;;;;5159173;27;20216;-62
2022/07/15 06:30:15;;;;;;;3.30;2.25;;;;;;;;;;5154745;27;20457;-62
2022/07/15 06:32:42;;;;;;;7.20;2.65;;;;;;;;;;5142598;27;20229;-60
2022/07/15 06:35:08;;;;;;;12.38;2.83;;;;;;;;;;5141768;27;20210;-62
2022/07/15 06:37:34;;;;;;;7.28;2.88;;;;;;;;;;5158615;27;20217;-62
2022/07/15 06:40:01;;;;;;;4.95;2.45;;;;;;;;;;5158277;27;20209;-61
2022/07/15 06:42:27;;;;;;;5.35;2.50;;;;;;;;;;5156523;27;20229;-62
2022/07/15 06:44:54;;;;;;;2.15;1.67;;;;;;;;;;5137555;27;20214;-62
2022/07/15 06:47:21;;;;;;;6.22;1.92;;;;;;;;;;5138026;27;20241;-62
2022/07/15 06:49:48;;;;;;;3.13;1.80;;;;;;;;;;5137620;27;20217;-62
2022/07/15 06:52:15;;;;;;;4.65;2.30;;;;;;;;;;5137981;27;20213;-61
2022/07/15 06:54:42;;;;;;;20.08;2.90;;;;;;;;;;5145820;27;20237;-61
2022/07/15 06:57:08;;;;;;;3.50;2.03;;;;;;;;;;5142686;27;20210;-62
2022/07/15 06:59:35;;;;;;;3.92;2.40;;;;;;;;;;5153176;27;20217;-62
2022/07/15 07:02:01;;;;;;;8.65;2.45;;;;;;;;;;5138624;27;20234;-62
2022/07/15 07:04:28;;;;;;;5.60;2.40;;;;;;;;;;5141657;27;20210;-63
2022/07/15 07:06:55;;;;;;;4.38;2.00;;;;;;;;;;5138168;27;20225;-63
2022/07/15 07:09:21;;;;;;;5.57;2.78;;;;;;;;;;5157645;27;20216;-62
2022/07/15 07:11:48;;;;;;;9.13;2.63;;;;;;;;;;5157948;27;20205;-62
2022/07/15 07:14:15;;;;;;;9.35;2.53;;;;;;;;;;5158509;27;20216;-62
2022/07/15 07:16:41;;;;;;;7.60;2.28;;;;;;;;;;5140588;27;20210;-61
2022/07/15 07:19:07;;;;;;;3.42;2.78;;;;;;;;;;5136399;27;20257;-62
2022/07/15 07:21:35;;;;;;;2.35;1.90;;;;;;;;;;5137079;27;20226;-62
2022/07/15 07:24:01;;;;;;;3.92;1.80;;;;;;;;;;5136546;27;20210;-62
2022/07/15 07:26:28;;;;;;;3.28;1.77;;;;;;;;;;5142161;27;20216;-62
2022/07/15 07:28:54;;;;;;;6.40;1.63;;;;;;;;;;5137729;27;20428;-62
2022/07/15 07:31:25;;;;;;;3.17;2.50;;;;;;;;;;5136661;27;20238;-62
2022/07/15 07:33:51;;;;;;;3.88;1.48;;;;;;;;;;5136725;27;20210;-62
2022/07/15 07:36:18;;;;;;;5.07;2.40;;;;;;;;;;5139424;27;20206;-62
2022/07/15 07:38:45;;;;;;;5.95;2.10;;;;;;;;;;5149323;27;20209;-62
2022/07/15 07:41:11;;;;;;;3.25;1.98;;;;;;;;;;5141115;27;20540;-62
2022/07/15 07:43:39;;;;;;;2.50;1.75;;;;;;;;;;5152580;27;20205;-62
2022/07/15 07:46:05;;;;;;;5.50;1.40;;;;;;;;;;5157141;27;20210;-61
2022/07/15 07:48:32;;;;;;;4.35;1.75;;;;;;;;;;5156685;27;20450;-62
2022/07/15 07:50:58;;;;;;;4.35;2.20;;;;;;;;;;5155777;27;20541;-62
2022/07/15 07:53:24;;;;;;;3.08;1.60;;;;;;;;;;5157520;27;20209;-60
2022/07/15 07:55:52;;;;;;;1.83;1.52;;;;;;;;;;5143547;27;20210;-62
2022/07/15 07:58:20;;;;;;;4.20;1.63;;;;;;;;;;5136236;27;20210;-60
2022/07/15 08:00:46;;;;;;;2.58;2.10;;;;;;;;;;5136134;27;20275;-60
2022/07/15 08:03:13;;;;;;;5.18;1.65;;;;;;;;;;5136654;27;20701;-60
2022/07/15 08:05:39;;;;;;;1.40;1.30;;;;;;;;;;5136177;27;20289;-62
2022/07/15 08:08:07;;;;;;;6.50;1.30;;;;;;;;;;5135260;27;20225;-62
2022/07/15 08:10:33;;;;;;;3.28;1.48;;;;;;;;;;5137571;27;20556;-62
2022/07/15 08:13:01;;;;;;;2.50;1.40;;;;;;;;;;5157102;27;20210;-62
2022/07/15 08:15:28;;;;;;;6.45;1.98;;;;;;;;;;5147903;27;20216;-61
2022/07/15 08:17:54;;;;;;;7.10;1.77;;;;;;;;;;5154928;27;20582;-62
2022/07/15 08:20:21;;;;;;;3.80;2.10;;;;;;;;;;5140291;27;20217;-61
2022/07/15 08:22:47;;;;;;;2.60;1.52;;;;;;;;;;5143765;27;20233;-60
2022/07/15 08:25:13;;;;;;;3.92;1.25;;;;;;;;;;5148300;27;20213;-60
2022/07/15 08:27:39;;;;;;;3.33;1.55;;;;;;;;;;5135538;27;20217;-60
2022/07/15 08:30:08;;;;;;;1.95;1.30;;;;;;;;;;5141783;27;20525;-59
2022/07/15 08:32:34;;;;;;;1.52;1.42;;;;;;;;;;5156365;27;20210;-62
2022/07/15 08:35:00;;;;;;;1.65;1.02;;;;;;;;;;5153893;27;20202;-60
2022/07/15 08:37:27;;;;;;;3.03;1.33;;;;;;;;;;5136545;27;20213;-60
2022/07/15 08:39:53;;;;;;;2.35;1.55;;;;;;;;;;5155508;27;20209;-60
2022/07/15 08:42:19;;;;;;;4.57;1.50;;;;;;;;;;5155745;27;20427;-60
2022/07/15 08:44:45;;;;;;;3.88;1.40;;;;;;;;;;5156665;27;20209;-62
2022/07/15 08:47:13;;;;;;;2.30;1.20;;;;;;;;;;5149101;27;20216;-60
2022/07/15 08:49:39;;;;;;;4.18;1.20;;;;;;;;;;5155171;27;20209;-60
2022/07/15 08:52:06;;;;;;;4.78;1.55;;;;;;;;;;5151586;27;20212;-60
2022/07/15 08:54:33;;;;;;;2.50;1.40;;;;;;;;;;5147275;27;20406;-63
2022/07/15 08:56:59;;;;;;;3.70;1.60;;;;;;;;;;5149998;27;20210;-63
2022/07/15 08:59:25;;;;;;;3.50;1.30;;;;;;;;;;5154133;27;20212;-62
2022/07/15 09:01:53;;;;;;;1.88;1.50;;;;;;;;;;5155957;27;20552;-62
2022/07/15 09:04:21;;;;;;;2.17;1.20;;;;;;;;;;5160673;27;20401;-62
2022/07/15 09:06:48;;;;;;;3.13;1.30;;;;;;;;;;5160097;27;20273;-62
2022/07/15 09:09:24;;;;;;;2.85;1.55;;;;;;;;;;5147608;27;20273;-61
2022/07/15 09:11:58;;;;;;;2.45;1.30;;;;;;;;;;5152252;27;20211;-62
2022/07/15 09:14:25;;;;;;;6.38;1.17;;;;;;;;;;5139477;27;20390;-63
2022/07/15 09:17:01;;;;;;;2.63;1.10;;;;;;;;;;5139710;27;20209;-62
2022/07/15 09:19:28;;;;;;;1.67;1.52;;;;;;;;;;5153192;27;20444;-62
2022/07/15 09:22:01;;;;;;;1.38;1.27;;;;;;;;;;5160154;27;20486;-62
2022/07/15 09:24:28;;;;;;;4.30;1.33;;;;;;;;;;5159681;27;20215;-62
2022/07/15 09:26:54;;;;;;;2.25;1.17;;;;;;;;;;5159993;27;20213;-61
2022/07/15 09:36:01;;;;;;;3.15;1.67;;;;;;;;;;5141769;27;20204;-62
2022/07/15 09:37:58;;;;;;;4.57;1.38;;;;;;;;;;5138610;27;20206;-62
2022/07/15 09:40:24;;;;;;;2.25;1.17;;;;;;;;;;5143461;27;20290;-62
2022/07/15 09:43:03;;;;;;;4.10;1.55;;;;;;;;;;5159589;27;20224;-63
2022/07/15 09:45:29;;;;;;;1.20;1.10;;;;;;;;;;5144417;27;20280;-61
2022/07/15 09:48:05;;;;;;;3.30;1.23;;;;;;;;;;5152488;27;20217;-62
2022/07/15 09:50:37;;;;;;;6.55;1.70;;;;;;;;;;5156739;27;20540;-62
2022/07/15 09:53:04;;;;;;;2.65;1.30;;;;;;;;;;5138744;27;20205;-63
2022/07/15 09:55:30;;;;;;;3.00;1.60;;;;;;;;;;5152902;27;20212;-62
2022/07/15 09:57:59;;;;;;;2.35;1.30;;;;;;;;;;5159626;27;20216;-63
2022/07/15 10:00:25;;;;;;;1.67;1.55;;;;;;;;;;5158001;27;20216;-62
2022/07/15 10:02:52;;;;;;;2.58;1.50;;;;;;;;;;5158958;27;20239;-63
2022/07/15 10:05:18;;;;;;;6.43;1.65;;;;;;;;;;5150384;27;20226;-63
2022/07/15 10:07:47;;;;;;;6.82;1.88;;;;;;;;;;5151502;27;20217;-63
2022/07/15 10:10:13;;;;;;;3.47;1.50;;;;;;;;;;5146466;27;20205;-63
2022/07/15 10:12:46;;;;;;;1.70;1.60;;;;;;;;;;5158873;27;20513;-62
2022/07/15 10:15:19;;;;;;;8.48;2.28;;;;;;;;;;5142484;27;20216;-62
2022/07/15 10:17:56;;;;;;;3.38;2.20;;;;;;;;;;5138439;27;20630;-62
2022/07/15 10:20:46;;;;;;;7.35;2.08;;;;;;;;;;5137768;27;20585;-62
2022/07/15 10:23:20;;;;;;;4.65;2.10;;;;;;;;;;5138584;27;20232;-62
2022/07/15 10:25:52;;;;;;;2.75;1.58;;;;;;;;;;5150732;27;20209;-62
2022/07/15 10:28:21;;;;;;;3.28;1.70;;;;;;;;;;5150478;27;20217;-62
2022/07/15 10:31:07;;;;;;;3.05;1.98;;;;;;;;;;5146002;27;20214;-61
2022/07/15 10:33:33;;;;;;;1.80;1.65;;;;;;;;;;5142338;27;20205;-61
2022/07/15 10:36:04;;;;;;;2.22;1.88;;;;;;;;;;5142036;27;20210;-61
2022/07/15 10:38:32;;;;;;;4.07;1.90;;;;;;;;;;5158219;27;20205;-61
2022/07/15 10:41:03;;;;;;;4.50;2.08;;;;;;;;;;5154122;27;20205;-61
2022/07/15 10:43:53;;;;;;;4.70;1.85;;;;;;;;;;5158320;27;20228;-61
2022/07/15 10:46:24;;;;;;;2.28;1.90;;;;;;;;;;5137716;27;20213;-61
2022/07/15 10:48:52;;;;;;;5.95;1.88;;;;;;;;;;5158240;27;20221;-61
2022/07/15 10:51:37;;;;;;;2.50;1.55;;;;;;;;;;5158343;27;20209;-61
2022/07/15 10:54:05;;;;;;;2.28;1.50;;;;;;;;;;5156004;27;20211;-61
2022/07/15 10:56:34;;;;;;;3.03;1.58;;;;;;;;;;5138275;27;20216;-61
2022/07/15 10:59:10;;;;;;;6.10;1.83;;;;;;;;;;5137902;27;20432;-61
2022/07/15 11:01:36;;;;;;;2.30;1.88;;;;;;;;;;5137085;27;20213;-61
2022/07/15 11:04:13;;;;;;;3.17;1.42;;;;;;;;;;5137383;27;20598;-63
2022/07/15 11:06:54;;;;;;;4.47;1.58;;;;;;;;;;5150140;27;20233;-63
2022/07/15 11:09:35;;;;;;;3.03;1.55;;;;;;;;;;5137262;27;20213;-63
2022/07/15 11:12:03;;;;;;;4.28;1.70;;;;;;;;;;5155572;27;20209;-62
2022/07/15 11:14:43;;;;;;;1.92;1.52;;;;;;;;;;5137509;27;20517;-62
2022/07/15 11:17:10;;;;;;;4.43;1.52;;;;;;;;;;5148171;27;20216;-63
2022/07/15 11:19:36;;;;;;;2.90;1.48;;;;;;;;;;5153949;27;20210;-62
2022/07/15 11:22:02;;;;;;;5.00;1.90;;;;;;;;;;5156369;27;20209;-63
2022/07/15 11:24:29;;;;;;;3.65;1.52;;;;;;;;;;5153134;27;20228;-63
2022/07/15 11:26:55;;;;;;;3.03;1.52;;;;;;;;;;5141485;27;20218;-63
2022/07/15 11:29:23;;;;;;;2.75;1.67;;;;;;;;;;5153028;27;20206;-62
2022/07/15 11:31:49;;;;;;;7.68;1.58;;;;;;;;;;5152508;27;20213;-62
2022/07/15 11:34:16;;;;;;;3.35;1.50;;;;;;;;;;5154141;27;20360;-63
2022/07/15 11:36:42;;;;;;;3.72;1.60;;;;;;;;;;5145540;27;20208;-63
2022/07/15 11:39:09;;;;;;;3.20;1.50;;;;;;;;;;5144113;27;20216;-64
2022/07/15 11:44:32;;;;;;;2.85;1.92;;;;;;;;;;5130455;27;20231;-63
2022/07/15 11:46:59;;;;;;;1.50;1.40;;;;;;;;;;5144639;27;20236;-64
2022/07/15 11:49:26;;;;;;;4.70;1.80;;;;;;;;;;5135967;27;20213;-63
2022/07/15 11:51:52;;;;;;;2.30;2.10;;;;;;;;;;5136321;27;20217;-62
2022/07/15 11:54:18;;;;;;;4.55;1.95;;;;;;;;;;5141285;27;20205;-63
2022/07/15 11:56:52;;;;;;;2.80;1.85;;;;;;;;;;5136886;27;20213;-60
2022/07/15 11:59:19;;;;;;;4.93;1.60;;;;;;;;;;5140687;27;20209;-62
2022/07/15 12:01:46;;;;;;;7.25;1.73;;;;;;;;;;5140342;27;20213;-60
2022/07/15 12:04:13;;;;;;;3.90;1.73;;;;;;;;;;5157405;27;20232;-61
2022/07/15 12:06:39;;;;;;;2.50;1.80;;;;;;;;;;5151624;27;20257;-62
2022/07/15 12:09:08;;;;;;;3.53;1.92;;;;;;;;;;5140194;27;20251;-61
2022/07/15 12:11:36;;;;;;;3.00;1.50;;;;;;;;;;5137836;27;20210;-63
2022/07/15 12:14:04;;;;;;;2.92;1.50;;;;;;;;;;5155975;27;20569;-61
2022/07/15 12:16:32;;;;;;;2.88;1.75;;;;;;;;;;5153759;27;20223;-62
2022/07/15 12:19:00;;;;;;;3.30;1.45;;;;;;;;;;5145095;27;20253;-64
2022/07/15 12:21:27;;;;;;;3.15;1.40;;;;;;;;;;5145598;27;20401;-64
2022/07/15 12:24:01;;;;;;;3.72;1.63;;;;;;;;;;5135403;27;20249;-63
2022/07/15 12:26:27;;;;;;;3.90;1.75;;;;;;;;;;5145095;27;20213;-64
2022/07/15 12:28:54;;;;;;;2.80;1.60;;;;;;;;;;5151170;27;20544;-62
2022/07/15 12:31:24;;;;;;;1.90;1.63;;;;;;;;;;5138022;27;20217;-62
2022/07/15 12:33:51;;;;;;;3.28;1.60;;;;;;;;;;5155847;27;20201;-63
2022/07/15 12:36:19;;;;;;;5.70;1.80;;;;;;;;;;5141509;27;20206;-62
2022/07/15 12:38:46;;;;;;;5.20;1.80;;;;;;;;;;5152405;27;20220;-62
2022/07/15 12:41:23;;;;;;;5.90;1.55;;;;;;;;;;5155380;27;20209;-63
2022/07/15 12:43:50;;;;;;;2.80;1.85;;;;;;;;;;5147491;27;20229;-61
2022/07/15 12:46:17;;;;;;;3.55;1.50;;;;;;;;;;5143577;27;20556;-62
2022/07/15 12:48:47;;;;;;;7.35;1.60;;;;;;;;;;5135028;27;20217;-62
2022/07/15 12:51:14;;;;;;;4.28;1.75;;;;;;;;;;5134487;27;20237;-62
2022/07/15 12:53:41;;;;;;;6.07;1.60;;;;;;;;;;5146674;27;20208;-61
2022/07/15 12:56:08;;;;;;;3.25;1.45;;;;;;;;;;5154771;27;20212;-62
2022/07/15 12:58:35;;;;;;;2.78;1.60;;;;;;;;;;5155994;27;20388;-63
2022/07/15 13:01:05;;;;;;;3.28;1.35;;;;;;;;;;5146491;27;20209;-62
2022/07/15 13:03:31;;;;;;;1.95;1.60;;;;;;;;;;5155128;27;20224;-62
2022/07/15 13:05:58;;;;;;;3.20;1.80;;;;;;;;;;5154961;27;20228;-62
2022/07/15 13:08:25;;;;;;;5.03;1.88;;;;;;;;;;5145401;27;20298;-62
2022/07/15 13:10:54;;;;;;;5.18;1.58;;;;;;;;;;5133628;27;20210;-64
2022/07/15 13:13:22;;;;;;;3.38;1.55;;;;;;;;;;5143643;27;20205;-63
2022/07/15 13:15:49;;;;;;;6.68;1.88;;;;;;;;;;5135402;27;20214;-63
2022/07/15 13:18:15;;;;;;;4.30;1.52;;;;;;;;;;5135368;27;20216;-63
2022/07/15 13:20:42;;;;;;;2.80;1.70;;;;;;;;;;5138501;27;20209;-63
2022/07/15 13:23:08;;;;;;;3.83;1.50;;;;;;;;;;5135348;27;20234;-62
2022/07/15 13:25:36;;;;;;;3.63;1.30;;;;;;;;;;5137193;27;20214;-62
2022/07/15 13:28:04;;;;;;;2.28;1.70;;;;;;;;;;5155590;27;20208;-63
2022/07/15 13:30:30;;;;;;;7.10;1.30;;;;;;;;;;5153437;27;20265;-62
2022/07/15 13:32:56;;;;;;;2.83;1.73;;;;;;;;;;5134538;27;20209;-59
2022/07/15 13:35:23;;;;;;;4.03;1.67;;;;;;;;;;5136327;27;20237;-62
2022/07/15 13:37:49;;;;;;;3.67;1.83;;;;;;;;;;5152047;27;20436;-63
2022/07/15 13:40:15;;;;;;;2.10;1.35;;;;;;;;;;5139013;27;20274;-63
2022/07/15 13:42:42;;;;;;;8.63;1.60;;;;;;;;;;5134278;27;20213;-63
2022/07/15 13:45:10;;;;;;;5.18;1.50;;;;;;;;;;5135007;27;20212;-61
2022/07/15 13:47:37;;;;;;;3.85;1.77;;;;;;;;;;5140680;27;20253;-61
2022/07/15 13:52:48;;;;;;;4.57;1.70;;;;;;;;;;5147870;27;20432;-61
2022/07/15 13:55:15;;;;;;;3.80;1.80;;;;;;;;;;5139266;27;20352;-63
2022/07/15 13:57:41;;;;;;;2.03;1.40;;;;;;;;;;5159145;27;20471;-62
2022/07/15 14:00:12;;;;;;;2.38;1.40;;;;;;;;;;5139123;27;20213;-62
2022/07/15 14:02:38;;;;;;;4.47;1.40;;;;;;;;;;5149948;27;20236;-61
2022/07/15 14:05:05;;;;;;;5.78;1.80;;;;;;;;;;5158797;27;20413;-60
2022/07/15 14:07:32;;;;;;;5.80;1.80;;;;;;;;;;5153365;27;20458;-68
2022/07/15 14:09:58;;;;;;;2.83;1.50;;;;;;;;;;5158930;27;20250;-68
2022/07/15 14:12:24;;;;;;;3.63;1.80;;;;;;;;;;5158752;27;20209;-69
2022/07/15 14:14:50;;;;;;;4.53;1.50;;;;;;;;;;5150248;27;20209;-69
2022/07/15 14:17:18;;;;;;;2.67;1.60;;;;;;;;;;5138608;27;20477;-68
2022/07/15 14:19:44;;;;;;;5.28;1.63;;;;;;;;;;5141737;27;20209;-67
2022/07/15 14:22:11;;;;;;;3.97;1.75;;;;;;;;;;5146840;27;20545;-67
2022/07/15 14:24:37;;;;;;;6.43;1.85;;;;;;;;;;5144700;27;20244;-67
2022/07/15 14:27:03;;;;;;;6.53;1.48;;;;;;;;;;5158055;27;20216;-67
2022/07/15 14:29:30;;;;;;;3.15;1.60;;;;;;;;;;5156992;27;20215;-68
2022/07/15 14:31:56;;;;;;;2.30;1.48;;;;;;;;;;5137870;27;20210;-68
2022/07/15 14:34:24;;;;;;;2.03;1.50;;;;;;;;;;5155481;27;20204;-68
2022/07/15 14:36:50;;;;;;;1.60;1.50;;;;;;;;;;5144214;27;20209;-68
2022/07/15 14:39:17;;;;;;;3.88;1.67;;;;;;;;;;5151308;27;20198;-67
2022/07/15 14:41:43;;;;;;;1.67;1.23;;;;;;;;;;5138777;27;20255;-68
2022/07/15 14:44:09;;;;;;;4.13;1.58;;;;;;;;;;5137722;27;20222;-67
2022/07/15 14:46:35;;;;;;;5.20;1.40;;;;;;;;;;5150182;27;20612;-68
2022/07/15 14:49:02;;;;;;;2.40;1.30;;;;;;;;;;5146289;27;20209;-68
2022/07/15 14:51:30;;;;;;;4.03;1.60;;;;;;;;;;5137553;27;20224;-68
2022/07/15 14:53:56;;;;;;;6.35;1.60;;;;;;;;;;5155223;27;20209;-68
2022/07/15 14:56:22;;;;;;;4.03;1.33;;;;;;;;;;5158194;27;20216;-68
2022/07/15 14:58:48;;;;;;;2.42;1.23;;;;;;;;;;5157766;27;20209;-68
2022/07/15 15:01:15;;;;;;;2.03;1.35;;;;;;;;;;5140412;27;20250;-68